createdAt,value
2023-09-04T00:00:40.811Z,0.00
2023-09-04T00:01:40.756Z,0.00
2023-09-04T00:02:40.757Z,0.00
2023-09-04T00:03:40.604Z,0.00
2023-09-04T00:04:40.455Z,0.00
2023-09-04T00:05:40.377Z,0.00
2023-09-04T00:06:40.285Z,0.00
2023-09-04T00:07:40.196Z,0.00
2023-09-04T00:08:40.108Z,0.00
2023-09-04T00:09:40.017Z,0.00
2023-09-04T00:10:39.924Z,0.00
2023-09-04T00:11:39.838Z,0.00
2023-09-04T00:12:39.756Z,0.00
2023-09-04T00:13:39.660Z,0.00
2023-09-04T00:14:39.575Z,0.00
2023-09-04T00:15:39.509Z,0.00
2023-09-04T00:16:39.505Z,0.00
2023-09-04T00:17:39.320Z,0.00
2023-09-04T00:18:39.234Z,0.00
2023-09-04T00:19:39.133Z,0.00
2023-09-04T00:20:39.057Z,0.00
2023-09-04T00:21:38.952Z,0.00
2023-09-04T00:22:38.868Z,0.00
2023-09-04T00:23:38.777Z,0.00
2023-09-04T00:24:38.685Z,0.00
2023-09-04T00:25:38.606Z,0.00
2023-09-04T00:26:38.515Z,0.00
2023-09-04T00:27:38.424Z,0.00
2023-09-04T00:28:38.330Z,0.00
2023-09-04T00:29:38.243Z,0.00
2023-09-04T00:30:38.150Z,0.00
2023-09-04T00:31:38.097Z,0.00
2023-09-04T00:32:37.998Z,0.00
2023-09-04T00:33:37.889Z,0.00
2023-09-04T00:34:37.812Z,0.00
2023-09-04T00:35:37.712Z,0.00
2023-09-04T00:36:37.628Z,0.00
2023-09-04T00:37:37.527Z,0.00
2023-09-04T00:38:37.446Z,0.00
2023-09-04T00:39:37.357Z,0.00
2023-09-04T00:40:37.273Z,0.00
2023-09-04T00:41:37.174Z,0.00
2023-09-04T00:42:37.087Z,0.00
2023-09-04T00:43:37.025Z,0.00
2023-09-04T00:44:36.920Z,0.00
2023-09-04T00:45:36.883Z,0.00
2023-09-04T00:46:36.730Z,0.00
2023-09-04T00:47:36.676Z,0.00
2023-09-04T00:48:36.553Z,0.00
2023-09-04T00:49:36.469Z,0.00
2023-09-04T00:50:36.374Z,0.00
2023-09-04T00:51:36.297Z,0.00
2023-09-04T00:52:36.210Z,0.00
2023-09-04T00:53:36.111Z,0.00
2023-09-04T00:54:36.036Z,0.00
2023-09-04T00:55:35.927Z,0.00
2023-09-04T00:56:35.849Z,0.00
2023-09-04T00:57:35.756Z,0.00
2023-09-04T00:58:35.702Z,0.00
2023-09-04T00:59:35.586Z,0.00
2023-09-04T01:00:35.493Z,0.00
2023-09-04T01:01:35.429Z,0.00
2023-09-04T01:02:35.385Z,0.00
2023-09-04T01:03:35.256Z,0.00
2023-09-04T01:04:35.140Z,0.00
2023-09-04T01:05:35.045Z,0.00
2023-09-04T01:06:34.958Z,0.00
2023-09-04T01:07:34.869Z,0.00
2023-09-04T01:08:34.780Z,0.00
2023-09-04T01:09:34.695Z,0.00
2023-09-04T01:10:34.606Z,0.00
2023-09-04T01:11:34.513Z,0.00
2023-09-04T01:12:34.438Z,0.00
2023-09-04T01:13:34.335Z,0.00
2023-09-04T01:14:34.249Z,0.00
2023-09-04T01:15:34.178Z,0.00
2023-09-04T01:16:34.071Z,0.00
2023-09-04T01:17:34.008Z,0.00
2023-09-04T01:18:33.960Z,0.00
2023-09-04T01:19:33.814Z,0.00
2023-09-04T01:20:33.711Z,0.00
2023-09-04T01:21:33.622Z,0.00
2023-09-04T01:22:33.536Z,0.00
2023-09-04T01:23:33.492Z,0.00
2023-09-04T01:24:33.357Z,0.00
2023-09-04T01:25:33.280Z,0.00
2023-09-04T01:26:33.178Z,0.00
2023-09-04T01:27:33.126Z,0.00
2023-09-04T01:28:33.008Z,0.00
2023-09-04T01:29:32.916Z,0.00
2023-09-04T01:30:32.824Z,0.00
2023-09-04T01:31:32.737Z,0.00
2023-09-04T01:32:32.729Z,0.00
2023-09-04T01:33:32.565Z,0.00
2023-09-04T01:34:32.471Z,0.00
2023-09-04T01:35:32.416Z,0.00
2023-09-04T01:36:32.291Z,0.00
2023-09-04T01:37:32.218Z,0.00
2023-09-04T01:38:32.112Z,0.00
2023-09-04T01:39:32.030Z,0.00
2023-09-04T01:40:31.929Z,0.00
2023-09-04T01:41:31.845Z,0.00
2023-09-04T01:42:31.758Z,0.00
2023-09-04T01:43:31.674Z,0.00
2023-09-04T01:44:31.585Z,0.00
2023-09-04T01:45:31.488Z,0.00
2023-09-04T01:46:31.421Z,0.00
2023-09-04T01:47:31.344Z,0.00
2023-09-04T01:48:31.220Z,0.00
2023-09-04T01:49:31.137Z,0.00
2023-09-04T01:50:31.038Z,0.00
2023-09-04T01:51:30.961Z,0.00
2023-09-04T01:52:30.867Z,0.00
2023-09-04T01:53:30.773Z,0.00
2023-09-04T01:54:30.683Z,0.00
2023-09-04T01:55:30.602Z,0.00
2023-09-04T01:56:30.522Z,0.00
2023-09-04T01:57:30.438Z,0.00
2023-09-04T01:58:30.329Z,0.00
2023-09-04T01:59:30.241Z,0.00
2023-09-04T02:00:30.162Z,0.00
2023-09-04T02:01:30.138Z,0.00
2023-09-04T02:02:30.000Z,0.00
2023-09-04T02:03:30.009Z,0.00
2023-09-04T02:04:29.791Z,0.00
2023-09-04T02:05:29.706Z,0.00
2023-09-04T02:06:29.649Z,0.00
2023-09-04T02:07:29.530Z,0.00
2023-09-04T02:08:29.436Z,0.00
2023-09-04T02:09:29.388Z,0.00
2023-09-04T02:10:29.253Z,0.00
2023-09-04T02:11:29.200Z,0.00
2023-09-04T02:12:29.083Z,0.00
2023-09-04T02:13:28.989Z,0.00
2023-09-04T02:14:28.895Z,0.00
2023-09-04T02:15:28.816Z,0.00
2023-09-04T02:16:28.826Z,0.00
2023-09-04T02:17:28.682Z,0.00
2023-09-04T02:18:28.550Z,0.00
2023-09-04T02:19:28.447Z,0.00
2023-09-04T02:20:28.361Z,0.00
2023-09-04T02:21:28.272Z,0.00
2023-09-04T02:22:28.183Z,0.00
2023-09-04T02:23:28.108Z,0.00
2023-09-04T02:24:28.006Z,0.00
2023-09-04T02:25:27.916Z,0.00
2023-09-04T02:26:27.824Z,0.00
2023-09-04T02:27:27.753Z,0.00
2023-09-04T02:28:27.651Z,0.00
2023-09-04T02:29:27.561Z,0.00
2023-09-04T02:30:27.465Z,0.00
2023-09-04T02:31:27.449Z,0.00
2023-09-04T02:32:27.294Z,0.00
2023-09-04T02:33:27.202Z,0.00
2023-09-04T02:34:27.114Z,0.00
2023-09-04T02:35:27.023Z,0.00
2023-09-04T02:36:26.939Z,0.00
2023-09-04T02:37:26.842Z,0.00
2023-09-04T02:38:26.756Z,0.00
2023-09-04T02:39:26.657Z,0.00
2023-09-04T02:40:26.584Z,0.00
2023-09-04T02:41:26.493Z,0.00
2023-09-04T02:42:26.397Z,0.00
2023-09-04T02:43:26.300Z,0.00
2023-09-04T02:44:26.219Z,0.00
2023-09-04T02:45:28.365Z,0.00
2023-09-04T02:46:26.200Z,0.00
2023-09-04T02:47:25.947Z,0.00
2023-09-04T02:48:26.189Z,0.00
2023-09-04T02:49:25.774Z,0.00
2023-09-04T02:50:25.679Z,0.00
2023-09-04T02:51:26.159Z,0.00
2023-09-04T02:52:25.554Z,0.00
2023-09-04T02:53:25.409Z,0.00
2023-09-04T02:54:25.324Z,0.00
2023-09-04T02:55:25.229Z,0.00
2023-09-04T02:56:25.154Z,0.00
2023-09-04T02:57:25.067Z,0.00
2023-09-04T02:58:25.441Z,0.00
2023-09-04T02:59:24.873Z,0.00
2023-09-04T03:00:24.816Z,0.00
2023-09-04T03:01:24.764Z,0.00
2023-09-04T03:02:24.675Z,0.00
2023-09-04T03:03:24.607Z,0.00
2023-09-04T03:04:24.438Z,0.00
2023-09-04T03:05:24.334Z,0.00
2023-09-04T03:06:24.250Z,0.00
2023-09-04T03:07:24.161Z,0.00
2023-09-04T03:08:24.279Z,0.00
2023-09-04T03:09:23.979Z,0.00
2023-09-04T03:10:23.897Z,0.00
2023-09-04T03:11:23.824Z,0.00
2023-09-04T03:12:23.707Z,0.00
2023-09-04T03:13:23.620Z,0.00
2023-09-04T03:14:23.528Z,0.00
2023-09-04T03:15:23.443Z,0.00
2023-09-04T03:16:23.348Z,0.00
2023-09-04T03:17:25.470Z,0.00
2023-09-04T03:18:23.380Z,0.00
2023-09-04T03:19:23.082Z,0.00
2023-09-04T03:20:22.994Z,0.00
2023-09-04T03:21:22.898Z,0.00
2023-09-04T03:22:22.835Z,0.00
2023-09-04T03:23:22.724Z,0.00
2023-09-04T03:24:22.630Z,0.00
2023-09-04T03:25:22.564Z,0.00
2023-09-04T03:26:22.452Z,0.00
2023-09-04T03:27:22.387Z,0.00
2023-09-04T03:28:22.557Z,0.00
2023-09-04T03:29:22.200Z,0.00
2023-09-04T03:30:22.122Z,0.00
2023-09-04T03:31:22.035Z,0.00
2023-09-04T03:32:21.913Z,0.00
2023-09-04T03:33:21.838Z,0.00
2023-09-04T03:34:21.736Z,0.00
2023-09-04T03:35:21.648Z,0.00
2023-09-04T03:36:21.557Z,0.00
2023-09-04T03:37:21.469Z,0.00
2023-09-04T03:38:21.588Z,0.00
2023-09-04T03:39:21.286Z,0.00
2023-09-04T03:40:21.197Z,0.00
2023-09-04T03:41:21.107Z,0.00
2023-09-04T03:42:21.015Z,0.00
2023-09-04T03:43:20.974Z,0.00
2023-09-04T03:44:20.847Z,0.00
2023-09-04T03:45:20.761Z,0.00
2023-09-04T03:46:20.698Z,0.00
2023-09-04T03:47:20.567Z,0.00
2023-09-04T03:48:20.597Z,0.00
2023-09-04T03:49:20.392Z,0.00
2023-09-04T03:50:20.302Z,0.00
2023-09-04T03:51:20.209Z,0.00
2023-09-04T03:52:20.128Z,0.00
2023-09-04T03:53:20.047Z,0.00
2023-09-04T03:54:19.942Z,0.00
2023-09-04T03:55:19.871Z,0.00
2023-09-04T03:56:19.765Z,0.00
2023-09-04T03:57:19.667Z,0.00
2023-09-04T03:58:19.610Z,0.00
2023-09-04T03:59:19.490Z,0.00
2023-09-04T04:00:19.403Z,0.00
2023-09-04T04:01:19.306Z,0.00
2023-09-04T04:02:19.224Z,0.00
2023-09-04T04:03:19.204Z,0.00
2023-09-04T04:04:19.065Z,0.00
2023-09-04T04:05:18.996Z,0.00
2023-09-04T04:06:18.865Z,0.00
2023-09-04T04:07:18.769Z,0.00
2023-09-04T04:08:18.685Z,0.00
2023-09-04T04:09:18.587Z,0.00
2023-09-04T04:10:18.506Z,0.00
2023-09-04T04:11:18.411Z,0.00
2023-09-04T04:12:18.317Z,0.00
2023-09-04T04:13:18.235Z,0.00
2023-09-04T04:14:18.136Z,0.00
2023-09-04T04:15:18.068Z,0.00
2023-09-04T04:16:17.996Z,0.00
2023-09-04T04:17:17.883Z,0.00
2023-09-04T04:18:17.782Z,0.00
2023-09-04T04:19:17.692Z,0.00
2023-09-04T04:20:17.598Z,0.00
2023-09-04T04:21:17.515Z,0.00
2023-09-04T04:22:17.497Z,0.00
2023-09-04T04:23:17.328Z,0.00
2023-09-04T04:24:17.261Z,0.00
2023-09-04T04:25:17.168Z,0.00
2023-09-04T04:26:17.067Z,0.00
2023-09-04T04:27:17.000Z,0.00
2023-09-04T04:28:16.895Z,0.00
2023-09-04T04:29:16.811Z,0.00
2023-09-04T04:30:16.696Z,0.00
2023-09-04T04:31:16.635Z,0.00
2023-09-04T04:32:16.524Z,5.63
2023-09-04T04:33:16.448Z,5.63
2023-09-04T04:34:16.360Z,5.63
2023-09-04T04:35:16.255Z,5.63
2023-09-04T04:36:16.156Z,5.63
2023-09-04T04:37:16.107Z,5.63
2023-09-04T04:38:15.985Z,5.63
2023-09-04T04:39:15.892Z,5.63
2023-09-04T04:40:15.793Z,5.63
2023-09-04T04:41:15.714Z,11.25
2023-09-04T04:42:15.635Z,11.25
2023-09-04T04:43:15.530Z,11.25
2023-09-04T04:44:15.442Z,11.25
2023-09-04T04:45:15.355Z,11.25
2023-09-04T04:46:15.293Z,11.25
2023-09-04T04:47:15.180Z,16.88
2023-09-04T04:48:15.091Z,16.88
2023-09-04T04:49:14.990Z,16.88
2023-09-04T04:50:14.934Z,16.88
2023-09-04T04:51:14.809Z,16.88
2023-09-04T04:52:14.721Z,16.88
2023-09-04T04:53:14.640Z,22.50
2023-09-04T04:54:14.540Z,22.50
2023-09-04T04:55:14.449Z,22.50
2023-09-04T04:56:14.388Z,22.50
2023-09-04T04:57:14.271Z,22.50
2023-09-04T04:58:14.180Z,22.50
2023-09-04T04:59:14.094Z,28.13
2023-09-04T05:00:14.009Z,28.13
2023-09-04T05:01:13.965Z,28.13
2023-09-04T05:02:13.819Z,28.13
2023-09-04T05:03:13.779Z,28.13
2023-09-04T05:04:13.684Z,28.13
2023-09-04T05:05:13.575Z,33.75
2023-09-04T05:06:13.460Z,33.75
2023-09-04T05:07:13.386Z,33.75
2023-09-04T05:08:13.303Z,33.75
2023-09-04T05:09:13.191Z,33.75
2023-09-04T05:10:13.104Z,33.75
2023-09-04T05:11:13.008Z,33.75
2023-09-04T05:12:12.926Z,39.38
2023-09-04T05:13:12.836Z,39.38
2023-09-04T05:14:12.740Z,39.38
2023-09-04T05:15:12.678Z,39.38
2023-09-04T05:16:12.645Z,39.38
2023-09-04T05:17:12.475Z,39.38
2023-09-04T05:18:12.374Z,39.38
2023-09-04T05:19:12.289Z,45.00
2023-09-04T05:20:12.198Z,45.00
2023-09-04T05:21:12.107Z,45.00
2023-09-04T05:22:12.023Z,45.00
2023-09-04T05:23:11.926Z,45.00
2023-09-04T05:24:11.856Z,45.00
2023-09-04T05:25:11.776Z,45.00
2023-09-04T05:26:11.652Z,45.00
2023-09-04T05:27:11.577Z,50.63
2023-09-04T05:28:11.723Z,50.63
2023-09-04T05:29:11.440Z,50.63
2023-09-04T05:30:11.293Z,50.63
2023-09-04T05:31:11.259Z,50.63
2023-09-04T05:32:11.118Z,50.63
2023-09-04T05:33:11.132Z,50.63
2023-09-04T05:34:10.941Z,50.63
2023-09-04T05:35:10.846Z,50.63
2023-09-04T05:36:10.764Z,56.25
2023-09-04T05:37:10.668Z,56.25
2023-09-04T05:38:10.574Z,56.25
2023-09-04T05:39:10.489Z,56.25
2023-09-04T05:40:10.414Z,56.25
2023-09-04T05:41:10.361Z,56.25
2023-09-04T05:42:10.215Z,56.25
2023-09-04T05:43:10.131Z,56.25
2023-09-04T05:44:10.058Z,56.25
2023-09-04T05:45:09.941Z,61.88
2023-09-04T05:46:09.886Z,61.88
2023-09-04T05:47:09.768Z,61.88
2023-09-04T05:48:09.691Z,61.88
2023-09-04T05:49:09.600Z,61.88
2023-09-04T05:50:09.498Z,61.88
2023-09-04T05:51:09.419Z,61.88
2023-09-04T05:52:09.318Z,61.88
2023-09-04T05:53:09.229Z,61.88
2023-09-04T05:54:09.140Z,61.88
2023-09-04T05:55:09.047Z,61.88
2023-09-04T05:56:08.960Z,67.50
2023-09-04T05:57:08.879Z,67.50
2023-09-04T05:58:08.780Z,67.50
2023-09-04T05:59:08.695Z,67.50
2023-09-04T06:00:08.626Z,67.50
2023-09-04T06:01:08.527Z,67.50
2023-09-04T06:02:08.418Z,67.50
2023-09-04T06:03:08.507Z,73.13
2023-09-04T06:04:08.302Z,73.13
2023-09-04T06:05:08.156Z,73.13
2023-09-04T06:06:08.058Z,78.75
2023-09-04T06:07:07.981Z,78.75
2023-09-04T06:08:07.882Z,84.38
2023-09-04T06:09:07.786Z,90.00
2023-09-04T06:10:07.741Z,90.00
2023-09-04T06:11:07.609Z,90.00
2023-09-04T06:12:07.553Z,90.00
2023-09-04T06:13:07.434Z,95.63
2023-09-04T06:14:07.355Z,95.63
2023-09-04T06:15:07.250Z,95.63
2023-09-04T06:16:07.217Z,95.63
2023-09-04T06:17:07.091Z,95.63
2023-09-04T06:18:07.016Z,95.63
2023-09-04T06:19:06.910Z,95.63
2023-09-04T06:20:06.803Z,95.63
2023-09-04T06:21:06.723Z,95.63
2023-09-04T06:22:06.636Z,95.63
2023-09-04T06:23:06.552Z,95.63
2023-09-04T06:24:06.457Z,101.25
2023-09-04T06:25:06.355Z,101.25
2023-09-04T06:26:06.260Z,101.25
2023-09-04T06:27:06.171Z,101.25
2023-09-04T06:28:06.133Z,101.25
2023-09-04T06:29:06.012Z,101.25
2023-09-04T06:30:05.909Z,101.25
2023-09-04T06:31:05.908Z,101.25
2023-09-04T06:32:05.730Z,101.25
2023-09-04T06:33:05.744Z,101.25
2023-09-04T06:34:05.549Z,101.25
2023-09-04T06:35:05.458Z,101.25
2023-09-04T06:36:05.376Z,101.25
2023-09-04T06:37:05.307Z,101.25
2023-09-04T06:38:05.198Z,106.88
2023-09-04T06:39:05.101Z,106.88
2023-09-04T06:40:05.011Z,106.88
2023-09-04T06:41:04.919Z,106.88
2023-09-04T06:42:04.842Z,106.88
2023-09-04T06:43:04.757Z,106.88
2023-09-04T06:44:04.656Z,106.88
2023-09-04T06:45:04.572Z,106.88
2023-09-04T06:46:04.512Z,106.88
2023-09-04T06:47:04.392Z,106.88
2023-09-04T06:48:04.384Z,106.88
2023-09-04T06:49:04.219Z,106.88
2023-09-04T06:50:04.124Z,106.88
2023-09-04T06:51:04.103Z,106.88
2023-09-04T06:52:03.948Z,106.88
2023-09-04T06:53:03.869Z,112.50
2023-09-04T06:54:03.778Z,112.50
2023-09-04T06:55:03.701Z,112.50
2023-09-04T06:56:03.605Z,112.50
2023-09-04T06:57:03.503Z,112.50
2023-09-04T06:58:03.416Z,112.50
2023-09-04T06:59:03.357Z,112.50
2023-09-04T07:00:03.235Z,112.50
2023-09-04T07:01:03.158Z,112.50
2023-09-04T07:02:03.109Z,112.50
2023-09-04T07:03:03.065Z,112.50
2023-09-04T07:04:02.881Z,112.50
2023-09-04T07:05:02.846Z,112.50
2023-09-04T07:06:02.702Z,112.50
2023-09-04T07:07:02.662Z,112.50
2023-09-04T07:08:02.539Z,112.50
2023-09-04T07:09:02.435Z,118.13
2023-09-04T07:10:02.372Z,118.13
2023-09-04T07:11:02.265Z,118.13
2023-09-04T07:12:02.182Z,118.13
2023-09-04T07:13:02.124Z,118.13
2023-09-04T07:14:01.999Z,118.13
2023-09-04T07:15:01.905Z,118.13
2023-09-04T07:16:01.856Z,118.13
2023-09-04T07:17:09.041Z,118.13
2023-09-04T07:18:01.748Z,118.13
2023-09-04T07:19:01.556Z,118.13
2023-09-04T07:20:01.495Z,118.13
2023-09-04T07:21:01.383Z,118.13
2023-09-04T07:22:01.320Z,118.13
2023-09-04T07:23:18.541Z,118.13
2023-09-04T07:24:01.124Z,118.13
2023-09-04T07:25:01.094Z,118.13
2023-09-04T07:26:00.944Z,118.13
2023-09-04T07:27:00.867Z,118.13
2023-09-04T07:28:00.777Z,118.13
2023-09-04T07:29:00.682Z,118.13
2023-09-04T07:30:00.714Z,118.13
2023-09-04T07:31:00.548Z,123.75
2023-09-04T07:32:00.447Z,123.75
2023-09-04T07:33:00.351Z,123.75
2023-09-04T07:34:00.243Z,123.75
2023-09-04T07:35:00.195Z,123.75
2023-09-04T07:36:00.080Z,123.75
2023-09-04T07:36:59.976Z,123.75
2023-09-04T07:37:59.899Z,123.75
2023-09-04T07:38:59.819Z,123.75
2023-09-04T07:39:59.720Z,123.75
2023-09-04T07:40:59.629Z,123.75
2023-09-04T07:41:59.544Z,129.38
2023-09-04T07:42:59.457Z,129.38
2023-09-04T07:43:59.381Z,129.38
2023-09-04T07:44:59.291Z,129.38
2023-09-04T07:45:59.294Z,129.38
2023-09-04T07:46:59.121Z,129.38
2023-09-04T07:47:59.064Z,129.38
2023-09-04T07:48:58.937Z,129.38
2023-09-04T07:49:58.849Z,129.38
2023-09-04T07:50:58.756Z,129.38
2023-09-04T07:51:58.672Z,129.38
2023-09-04T07:52:58.578Z,129.38
2023-09-04T07:53:58.516Z,129.38
2023-09-04T07:54:58.421Z,135.00
2023-09-04T07:55:58.323Z,135.00
2023-09-04T07:56:58.244Z,135.00
2023-09-04T07:57:58.169Z,135.00
2023-09-04T07:58:58.055Z,135.00
2023-09-04T07:59:57.982Z,135.00
2023-09-04T08:00:57.960Z,135.00
2023-09-04T08:01:57.806Z,135.00
2023-09-04T08:02:57.834Z,135.00
2023-09-04T08:03:57.657Z,135.00
2023-09-04T08:04:57.571Z,135.00
2023-09-04T08:05:57.452Z,140.63
2023-09-04T08:06:57.390Z,140.63
2023-09-04T08:07:57.284Z,140.63
2023-09-04T08:08:57.221Z,140.63
2023-09-04T08:09:57.119Z,140.63
2023-09-04T08:10:57.032Z,140.63
2023-09-04T08:11:56.940Z,140.63
2023-09-04T08:12:57.139Z,140.63
2023-09-04T08:13:56.769Z,140.63
2023-09-04T08:14:56.708Z,146.25
2023-09-04T08:15:56.605Z,146.25
2023-09-04T08:16:56.550Z,146.25
2023-09-04T08:17:56.461Z,146.25
2023-09-04T08:18:56.341Z,146.25
2023-09-04T08:19:56.254Z,146.25
2023-09-04T08:20:56.169Z,146.25
2023-09-04T08:21:56.095Z,146.25
2023-09-04T08:22:56.010Z,146.25
2023-09-04T08:23:55.942Z,146.25
2023-09-04T08:24:55.837Z,146.25
2023-09-04T08:25:55.737Z,146.25
2023-09-04T08:26:55.664Z,151.88
2023-09-04T08:27:55.585Z,151.88
2023-09-04T08:28:55.479Z,151.88
2023-09-04T08:29:55.433Z,151.88
2023-09-04T08:30:55.315Z,151.88
2023-09-04T08:31:55.255Z,151.88
2023-09-04T08:32:55.171Z,151.88
2023-09-04T08:33:55.063Z,151.88
2023-09-04T08:34:54.968Z,151.88
2023-09-04T08:35:54.886Z,151.88
2023-09-04T08:36:54.799Z,151.88
2023-09-04T08:37:54.709Z,151.88
2023-09-04T08:38:54.654Z,151.88
2023-09-04T08:39:54.565Z,151.88
2023-09-04T08:40:54.465Z,151.88
2023-09-04T08:41:54.405Z,151.88
2023-09-04T08:42:54.308Z,151.88
2023-09-04T08:43:54.269Z,151.88
2023-09-04T08:44:54.135Z,151.88
2023-09-04T08:45:54.046Z,151.88
2023-09-04T08:46:54.010Z,151.88
2023-09-04T08:47:53.892Z,151.88
2023-09-04T08:48:53.776Z,151.88
2023-09-04T08:49:53.697Z,151.88
2023-09-04T08:50:53.625Z,151.88
2023-09-04T08:51:53.561Z,151.88
2023-09-04T08:52:54.006Z,151.88
2023-09-04T08:53:53.376Z,151.88
2023-09-04T08:54:53.268Z,151.88
2023-09-04T08:55:53.195Z,151.88
2023-09-04T08:56:53.099Z,151.88
2023-09-04T08:57:53.026Z,151.88
2023-09-04T08:58:52.926Z,151.88
2023-09-04T08:59:52.853Z,151.88
2023-09-04T09:00:52.786Z,151.88
2023-09-04T09:01:52.680Z,151.88
2023-09-04T09:02:52.706Z,151.88
2023-09-04T09:03:52.614Z,151.88
2023-09-04T09:04:52.446Z,151.88
2023-09-04T09:05:52.347Z,151.88
2023-09-04T09:06:52.256Z,151.88
2023-09-04T09:07:52.166Z,151.88
2023-09-04T09:08:52.703Z,151.88
2023-09-04T09:09:52.013Z,151.88
2023-09-04T09:10:51.920Z,151.88
2023-09-04T09:11:51.836Z,151.88
2023-09-04T09:12:51.754Z,151.88
2023-09-04T09:13:51.689Z,151.88
2023-09-04T09:14:51.602Z,151.88
2023-09-04T09:15:51.688Z,151.88
2023-09-04T09:16:51.423Z,151.88
2023-09-04T09:17:51.391Z,151.88
2023-09-04T09:18:51.283Z,151.88
2023-09-04T09:19:51.156Z,151.88
2023-09-04T09:20:51.092Z,151.88
2023-09-04T09:21:50.991Z,151.88
2023-09-04T09:22:50.901Z,151.88
2023-09-04T09:23:50.860Z,151.88
2023-09-04T09:24:50.746Z,151.88
2023-09-04T09:25:50.663Z,146.25
2023-09-04T09:26:50.568Z,151.88
2023-09-04T09:27:50.499Z,151.88
2023-09-04T09:28:50.423Z,151.88
2023-09-04T09:29:50.339Z,151.88
2023-09-04T09:30:50.247Z,151.88
2023-09-04T09:31:50.251Z,151.88
2023-09-04T09:32:50.111Z,151.88
2023-09-04T09:33:50.026Z,151.88
2023-09-04T09:34:49.910Z,146.25
2023-09-04T09:35:49.827Z,146.25
2023-09-04T09:36:49.735Z,146.25
2023-09-04T09:37:49.658Z,146.25
2023-09-04T09:38:49.561Z,146.25
2023-09-04T09:39:49.512Z,146.25
2023-09-04T09:40:49.400Z,146.25
2023-09-04T09:41:49.326Z,146.25
2023-09-04T09:42:49.248Z,146.25
2023-09-04T09:43:49.172Z,146.25
2023-09-04T09:44:49.074Z,146.25
2023-09-04T09:45:49.005Z,146.25
2023-09-04T09:46:48.901Z,146.25
2023-09-04T09:47:48.851Z,146.25
2023-09-04T09:48:48.730Z,146.25
2023-09-04T09:49:48.643Z,146.25
2023-09-04T09:50:48.565Z,146.25
2023-09-04T09:51:48.485Z,146.25
2023-09-04T09:52:48.395Z,146.25
2023-09-04T09:53:48.313Z,146.25
2023-09-04T09:54:48.260Z,146.25
2023-09-04T09:55:48.152Z,146.25
2023-09-04T09:56:48.070Z,146.25
2023-09-04T09:57:49.257Z,146.25
2023-09-04T09:58:47.952Z,146.25
2023-09-04T09:59:47.847Z,146.25
2023-09-04T10:00:47.734Z,146.25
2023-09-04T10:01:47.658Z,146.25
2023-09-04T10:02:47.627Z,146.25
2023-09-04T10:03:47.555Z,146.25
2023-09-04T10:04:47.401Z,146.25
2023-09-04T10:05:47.333Z,146.25
2023-09-04T10:06:47.239Z,146.25
2023-09-04T10:07:47.170Z,146.25
2023-09-04T10:08:47.095Z,146.25
2023-09-04T10:09:46.994Z,146.25
2023-09-04T10:10:46.955Z,146.25
2023-09-04T10:11:47.663Z,146.25
2023-09-04T10:12:46.754Z,146.25
2023-09-04T10:13:46.703Z,146.25
2023-09-04T10:14:46.585Z,146.25
2023-09-04T10:15:46.525Z,140.63
2023-09-04T10:16:46.406Z,146.25
2023-09-04T10:17:46.345Z,146.25
2023-09-04T10:18:46.247Z,146.25
2023-09-04T10:19:46.160Z,140.63
2023-09-04T10:20:46.083Z,146.25
2023-09-04T10:21:45.989Z,140.63
2023-09-04T10:22:45.912Z,140.63
2023-09-04T10:23:45.835Z,140.63
2023-09-04T10:24:45.742Z,140.63
2023-09-04T10:25:45.658Z,140.63
2023-09-04T10:26:45.571Z,140.63
2023-09-04T10:27:45.511Z,140.63
2023-09-04T10:28:45.810Z,140.63
2023-09-04T10:29:45.327Z,140.63
2023-09-04T10:30:45.249Z,140.63
2023-09-04T10:31:45.171Z,140.63
2023-09-04T10:32:45.102Z,140.63
2023-09-04T10:33:45.021Z,140.63
2023-09-04T10:34:44.925Z,140.63
2023-09-04T10:35:44.843Z,140.63
2023-09-04T10:36:44.757Z,140.63
2023-09-04T10:37:44.673Z,140.63
2023-09-04T10:38:45.449Z,140.63
2023-09-04T10:39:46.746Z,140.63
2023-09-04T10:40:44.435Z,140.63
2023-09-04T10:41:44.336Z,140.63
2023-09-04T10:42:44.262Z,140.63
2023-09-04T10:43:44.259Z,140.63
2023-09-04T10:44:44.094Z,140.63
2023-09-04T10:45:44.046Z,140.63
2023-09-04T10:46:43.980Z,140.63
2023-09-04T10:47:43.899Z,140.63
2023-09-04T10:48:43.815Z,140.63
2023-09-04T10:49:43.685Z,140.63
2023-09-04T10:50:43.619Z,140.63
2023-09-04T10:51:43.536Z,140.63
2023-09-04T10:52:43.500Z,140.63
2023-09-04T10:53:43.353Z,140.63
2023-09-04T10:54:43.345Z,140.63
2023-09-04T10:55:43.209Z,140.63
2023-09-04T10:56:43.118Z,140.63
2023-09-04T10:57:43.030Z,140.63
2023-09-04T10:58:42.968Z,140.63
2023-09-04T10:59:42.861Z,140.63
2023-09-04T11:00:42.879Z,146.25
2023-09-04T11:01:42.736Z,140.63
2023-09-04T11:02:42.660Z,140.63
2023-09-04T11:03:42.538Z,140.63
2023-09-04T11:04:42.452Z,140.63
2023-09-04T11:05:42.418Z,140.63
2023-09-04T11:06:42.379Z,140.63
2023-09-04T11:07:42.207Z,140.63
2023-09-04T11:08:42.128Z,140.63
2023-09-04T11:09:42.033Z,140.63
2023-09-04T11:10:41.953Z,140.63
2023-09-04T11:11:41.948Z,140.63
2023-09-04T11:12:41.796Z,140.63
2023-09-04T11:13:41.719Z,140.63
2023-09-04T11:14:41.631Z,140.63
2023-09-04T11:15:41.555Z,140.63
2023-09-04T11:16:41.488Z,140.63
2023-09-04T11:17:41.485Z,140.63
2023-09-04T11:18:41.298Z,140.63
2023-09-04T11:19:41.217Z,140.63
2023-09-04T11:20:41.127Z,140.63
2023-09-04T11:21:41.273Z,140.63
2023-09-04T11:22:40.979Z,140.63
2023-09-04T11:23:40.883Z,140.63
2023-09-04T11:24:40.807Z,140.63
2023-09-04T11:25:40.727Z,140.63
2023-09-04T11:26:40.665Z,140.63
2023-09-04T11:27:40.561Z,140.63
2023-09-04T11:28:40.484Z,140.63
2023-09-04T11:29:40.415Z,140.63
2023-09-04T11:30:40.328Z,140.63
2023-09-04T11:31:41.754Z,140.63
2023-09-04T11:32:40.247Z,140.63
2023-09-04T11:33:40.388Z,140.63
2023-09-04T11:34:40.005Z,140.63
2023-09-04T11:35:39.937Z,140.63
2023-09-04T11:36:39.851Z,140.63
2023-09-04T11:37:39.759Z,140.63
2023-09-04T11:38:39.673Z,140.63
2023-09-04T11:39:39.585Z,140.63
2023-09-04T11:40:39.505Z,140.63
2023-09-04T11:41:39.430Z,140.63
2023-09-04T11:42:39.332Z,140.63
2023-09-04T11:43:39.280Z,140.63
2023-09-04T11:44:39.175Z,140.63
2023-09-04T11:45:39.124Z,140.63
2023-09-04T11:46:39.027Z,140.63
2023-09-04T11:47:40.527Z,140.63
2023-09-04T11:48:38.848Z,140.63
2023-09-04T11:49:38.775Z,140.63
2023-09-04T11:50:38.700Z,140.63
2023-09-04T11:51:38.613Z,140.63
2023-09-04T11:52:38.539Z,140.63
2023-09-04T11:53:38.472Z,140.63
2023-09-04T11:54:38.362Z,140.63
2023-09-04T11:55:38.305Z,135.00
2023-09-04T11:56:38.227Z,140.63
2023-09-04T11:57:38.113Z,140.63
2023-09-04T11:58:38.057Z,140.63
2023-09-04T11:59:37.979Z,140.63
2023-09-04T12:00:37.896Z,140.63
2023-09-04T12:01:37.832Z,140.63
2023-09-04T12:02:37.778Z,140.63
2023-09-04T12:03:37.660Z,140.63
2023-09-04T12:04:37.581Z,140.63
2023-09-04T12:05:37.471Z,140.63
2023-09-04T12:06:37.420Z,140.63
2023-09-04T12:07:37.318Z,140.63
2023-09-04T12:08:37.218Z,140.63
2023-09-04T12:09:37.207Z,140.63
2023-09-04T12:10:37.061Z,140.63
2023-09-04T12:11:36.984Z,140.63
2023-09-04T12:12:36.907Z,140.63
2023-09-04T12:13:36.814Z,140.63
2023-09-04T12:14:36.967Z,140.63
2023-09-04T12:15:36.685Z,140.63
2023-09-04T12:16:36.696Z,140.63
2023-09-04T12:17:36.529Z,140.63
2023-09-04T12:18:36.420Z,140.63
2023-09-04T12:19:36.324Z,140.63
2023-09-04T12:20:36.304Z,140.63
2023-09-04T12:21:36.199Z,140.63
2023-09-04T12:22:36.086Z,140.63
2023-09-04T12:23:36.011Z,140.63
2023-09-04T12:24:35.921Z,140.63
2023-09-04T12:25:35.838Z,140.63
2023-09-04T12:26:35.768Z,140.63
2023-09-04T12:27:35.685Z,140.63
2023-09-04T12:28:35.631Z,140.63
2023-09-04T12:29:35.515Z,140.63
2023-09-04T12:30:35.434Z,146.25
2023-09-04T12:31:35.391Z,140.63
2023-09-04T12:32:35.373Z,140.63
2023-09-04T12:33:35.200Z,140.63
2023-09-04T12:34:35.112Z,140.63
2023-09-04T12:35:35.059Z,140.63
2023-09-04T12:36:34.956Z,140.63
2023-09-04T12:37:34.882Z,140.63
2023-09-04T12:38:34.787Z,140.63
2023-09-04T12:39:34.730Z,140.63
2023-09-04T12:40:34.628Z,146.25
2023-09-04T12:41:34.557Z,140.63
2023-09-04T12:42:34.480Z,146.25
2023-09-04T12:43:34.821Z,146.25
2023-09-04T12:44:34.324Z,140.63
2023-09-04T12:45:34.259Z,140.63
2023-09-04T12:46:34.139Z,146.25
2023-09-04T12:47:34.072Z,140.63
2023-09-04T12:48:34.011Z,146.25